TKJ058 LTFJ-LTCG
Flight info
| Callsign | TKJ058 |
|---|---|
| Flight time | 1h 21m |
| Altitude | 35000 |
| Route | VICEN UT380 ASMAP UL333 LATGA UT363 ESB UT364 ILHAN UW71 TEMEL |
| Aircraft | A320/M-SDE3FGHIRWY/LB1 |
Departure
| Time | 2026-05-06 09:03 |
|---|---|
| Airport | Istanbul Sabiha Gökçen International Airport (LTFJ) |
Arrival
| Time | 2026-05-06 10:24 |
|---|---|
| Airport | Trabzon International Airport (LTCG) |
| Time | Latitude | Longitude | Altitude | Speed | Heading |
|---|---|---|---|---|---|
| 2026-05-06 08:31 | 40.90891 | 29.31883 | 311 ft | 0 kts | 244° |
| 2026-05-06 08:52 | 40.90892 | 29.31887 | 311 ft | 3 kts | 244° |
| 2026-05-06 08:52 | 40.90904 | 29.31919 | 311 ft | 4 kts | 244° |
| 2026-05-06 08:53 | 40.90915 | 29.31951 | 310 ft | 4 kts | 244° |
| 2026-05-06 08:53 | 40.90927 | 29.31983 | 311 ft | 4 kts | 244° |
| 2026-05-06 08:53 | 40.90929 | 29.31990 | 311 ft | 0 kts | 244° |
| 2026-05-06 08:57 | 40.90929 | 29.31988 | 311 ft | 1 kts | 244° |
| 2026-05-06 08:57 | 40.90917 | 29.31975 | 310 ft | 3 kts | 209° |
| 2026-05-06 08:57 | 40.90888 | 29.31976 | 310 ft | 5 kts | 162° |
| 2026-05-06 08:57 | 40.90854 | 29.32012 | 311 ft | 8 kts | 127° |
| 2026-05-06 08:58 | 40.90819 | 29.32069 | 310 ft | 9 kts | 134° |
| 2026-05-06 08:58 | 40.90767 | 29.32110 | 310 ft | 6 kts | 155° |
| 2026-05-06 08:58 | 40.90727 | 29.32147 | 311 ft | 6 kts | 124° |
| 2026-05-06 08:58 | 40.90736 | 29.32210 | 309 ft | 8 kts | 67° |
| 2026-05-06 08:59 | 40.90722 | 29.32279 | 311 ft | 9 kts | 144° |
| 2026-05-06 08:59 | 40.90658 | 29.32314 | 311 ft | 11 kts | 153° |
| 2026-05-06 08:59 | 40.90612 | 29.32377 | 311 ft | 6 kts | 124° |
| 2026-05-06 08:59 | 40.90575 | 29.32425 | 311 ft | 9 kts | 150° |
| 2026-05-06 09:00 | 40.90512 | 29.32465 | 311 ft | 11 kts | 154° |
| 2026-05-06 09:00 | 40.90439 | 29.32473 | 312 ft | 12 kts | 207° |
| 2026-05-06 09:00 | 40.90406 | 29.32416 | 312 ft | 0 kts | 242° |
| 2026-05-06 09:02 | 40.90405 | 29.32414 | 312 ft | 1 kts | 242° |
| 2026-05-06 09:02 | 40.90399 | 29.32399 | 311 ft | 3 kts | 242° |
| 2026-05-06 09:02 | 40.90353 | 29.32280 | 312 ft | 44 kts | 244° |
| 2026-05-06 09:02 | 40.90116 | 29.31635 | 312 ft | 109 kts | 244° |
| 2026-05-06 09:03 | 40.89704 | 29.30525 | 330 ft | 156 kts | 243° |
| 2026-05-06 09:03 | 40.89213 | 29.29270 | 989 ft | 151 kts | 242° |
| 2026-05-06 09:03 | 40.88758 | 29.28030 | 1692 ft | 150 kts | 244° |
| 2026-05-06 09:03 | 40.88302 | 29.26755 | 2189 ft | 163 kts | 244° |
| 2026-05-06 09:04 | 40.87780 | 29.25327 | 2521 ft | 182 kts | 244° |
| 2026-05-06 09:04 | 40.87208 | 29.23738 | 2885 ft | 201 kts | 245° |
| 2026-05-06 09:04 | 40.86573 | 29.21979 | 3163 ft | 225 kts | 245° |
| 2026-05-06 09:04 | 40.85854 | 29.19999 | 3586 ft | 252 kts | 240° |
| 2026-05-06 09:05 | 40.84634 | 29.18280 | 4350 ft | 264 kts | 211° |
| 2026-05-06 09:05 | 40.82872 | 29.17552 | 5248 ft | 271 kts | 181° |
| 2026-05-06 09:05 | 40.81042 | 29.18119 | 6126 ft | 275 kts | 150° |
| 2026-05-06 09:05 | 40.79698 | 29.19845 | 6943 ft | 279 kts | 118° |
| 2026-05-06 09:06 | 40.79152 | 29.22291 | 7773 ft | 281 kts | 97° |
| 2026-05-06 09:06 | 40.78869 | 29.24858 | 8628 ft | 285 kts | 97° |
| 2026-05-06 09:06 | 40.78591 | 29.27461 | 9443 ft | 289 kts | 96° |
| 2026-05-06 09:06 | 40.78307 | 29.30102 | 10198 ft | 296 kts | 96° |
| 2026-05-06 09:07 | 40.78005 | 29.32899 | 10481 ft | 320 kts | 97° |
| 2026-05-06 09:07 | 40.77670 | 29.35901 | 10705 ft | 341 kts | 96° |
| 2026-05-06 09:07 | 40.77318 | 29.39030 | 11233 ft | 351 kts | 96° |
| 2026-05-06 09:07 | 40.77168 | 29.40346 | 11506 ft | 353 kts | 96° |
| 2026-05-06 09:08 | 40.76874 | 29.42920 | 12054 ft | 357 kts | 96° |
| 2026-05-06 09:08 | 40.76626 | 29.45081 | 12502 ft | 360 kts | 96° |
| 2026-05-06 09:08 | 40.76284 | 29.48064 | 13123 ft | 363 kts | 96° |
| 2026-05-06 09:08 | 40.75903 | 29.51372 | 13789 ft | 367 kts | 96° |
| 2026-05-06 09:09 | 40.75517 | 29.54712 | 14442 ft | 370 kts | 96° |
| 2026-05-06 09:09 | 40.75123 | 29.58090 | 15075 ft | 374 kts | 96° |
| 2026-05-06 09:09 | 40.74728 | 29.61492 | 15684 ft | 377 kts | 96° |
| 2026-05-06 09:09 | 40.74327 | 29.64935 | 16248 ft | 381 kts | 96° |
| 2026-05-06 09:10 | 40.73919 | 29.68408 | 16854 ft | 385 kts | 96° |
| 2026-05-06 09:10 | 40.73509 | 29.71913 | 17452 ft | 388 kts | 96° |
| 2026-05-06 09:10 | 40.73099 | 29.75446 | 17991 ft | 391 kts | 96° |
| 2026-05-06 09:10 | 40.72689 | 29.79007 | 18549 ft | 395 kts | 96° |
| 2026-05-06 09:11 | 40.72248 | 29.82819 | 19144 ft | 399 kts | 96° |
| 2026-05-06 09:11 | 40.71849 | 29.86228 | 19656 ft | 402 kts | 96° |
| 2026-05-06 09:11 | 40.71415 | 29.89887 | 20191 ft | 406 kts | 96° |
| 2026-05-06 09:11 | 40.70976 | 29.93571 | 20730 ft | 409 kts | 96° |
| 2026-05-06 09:12 | 40.70531 | 29.97283 | 21228 ft | 411 kts | 96° |
| 2026-05-06 09:12 | 40.70087 | 30.01020 | 21684 ft | 415 kts | 96° |
| 2026-05-06 09:12 | 40.69636 | 30.04789 | 22158 ft | 418 kts | 96° |
| 2026-05-06 09:12 | 40.69179 | 30.08583 | 22613 ft | 421 kts | 96° |
| 2026-05-06 09:13 | 40.68720 | 30.12400 | 23061 ft | 424 kts | 96° |
| 2026-05-06 09:13 | 40.68258 | 30.16248 | 23508 ft | 427 kts | 96° |
| 2026-05-06 09:13 | 40.67792 | 30.20121 | 23944 ft | 430 kts | 96° |
| 2026-05-06 09:13 | 40.67319 | 30.24019 | 24365 ft | 433 kts | 96° |
| 2026-05-06 09:14 | 40.66840 | 30.27945 | 24779 ft | 435 kts | 96° |
| 2026-05-06 09:14 | 40.66371 | 30.31897 | 25180 ft | 438 kts | 95° |
| 2026-05-06 09:14 | 40.65980 | 30.35879 | 25555 ft | 440 kts | 94° |
| 2026-05-06 09:14 | 40.65650 | 30.39907 | 25879 ft | 444 kts | 93° |
| 2026-05-06 09:15 | 40.65353 | 30.43960 | 26211 ft | 446 kts | 92° |
| 2026-05-06 09:15 | 40.65058 | 30.48046 | 26561 ft | 450 kts | 92° |
| 2026-05-06 09:15 | 40.64754 | 30.52105 | 26913 ft | 453 kts | 92° |
| 2026-05-06 09:15 | 40.64425 | 30.56238 | 27280 ft | 456 kts | 93° |
| 2026-05-06 09:16 | 40.64077 | 30.60398 | 27649 ft | 458 kts | 93° |
| 2026-05-06 09:16 | 40.63718 | 30.64577 | 27991 ft | 461 kts | 93° |
| 2026-05-06 09:16 | 40.63353 | 30.68776 | 28298 ft | 463 kts | 93° |
| 2026-05-06 09:16 | 40.62765 | 30.72971 | 28608 ft | 469 kts | 102° |
| 2026-05-06 09:17 | 40.61883 | 30.77117 | 28925 ft | 472 kts | 102° |
| 2026-05-06 09:17 | 40.60996 | 30.81287 | 29256 ft | 475 kts | 102° |
| 2026-05-06 09:17 | 40.60105 | 30.85483 | 29573 ft | 476 kts | 102° |
| 2026-05-06 09:17 | 40.59215 | 30.89684 | 29989 ft | 476 kts | 102° |
| 2026-05-06 09:18 | 40.58329 | 30.93876 | 30389 ft | 476 kts | 102° |
| 2026-05-06 09:18 | 40.57443 | 30.98070 | 30812 ft | 476 kts | 102° |
| 2026-05-06 09:18 | 40.56553 | 31.02256 | 31280 ft | 474 kts | 102° |
| 2026-05-06 09:18 | 40.55662 | 31.06428 | 31745 ft | 474 kts | 102° |
| 2026-05-06 09:19 | 40.54771 | 31.10587 | 32167 ft | 472 kts | 102° |
| 2026-05-06 09:19 | 40.53879 | 31.14743 | 32548 ft | 472 kts | 102° |
| 2026-05-06 09:19 | 40.52987 | 31.18887 | 32940 ft | 471 kts | 102° |
| 2026-05-06 09:19 | 40.52095 | 31.23026 | 33338 ft | 470 kts | 102° |
| 2026-05-06 09:20 | 40.51203 | 31.27163 | 33728 ft | 470 kts | 102° |
| 2026-05-06 09:20 | 40.50312 | 31.31292 | 34143 ft | 470 kts | 102° |
| 2026-05-06 09:20 | 40.49422 | 31.35416 | 34544 ft | 469 kts | 102° |
| 2026-05-06 09:20 | 40.48527 | 31.39541 | 34904 ft | 469 kts | 102° |
| 2026-05-06 09:21 | 40.47628 | 31.43664 | 35076 ft | 471 kts | 102° |
| 2026-05-06 09:21 | 40.45810 | 31.51973 | 35119 ft | 474 kts | 103° |
| 2026-05-06 09:22 | 40.43989 | 31.60316 | 35120 ft | 476 kts | 103° |
| 2026-05-06 09:22 | 40.42160 | 31.68661 | 35119 ft | 476 kts | 103° |
| 2026-05-06 09:23 | 40.40322 | 31.77011 | 35118 ft | 477 kts | 103° |
| 2026-05-06 09:23 | 40.38467 | 31.85391 | 35116 ft | 479 kts | 103° |
| 2026-05-06 09:24 | 40.36600 | 31.93776 | 35124 ft | 479 kts | 103° |
| 2026-05-06 09:24 | 40.34723 | 32.02155 | 35129 ft | 479 kts | 103° |
| 2026-05-06 09:25 | 40.32840 | 32.10531 | 35122 ft | 479 kts | 102° |
| 2026-05-06 09:25 | 40.31119 | 32.18960 | 35131 ft | 479 kts | 101° |
| 2026-05-06 09:26 | 40.29519 | 32.27420 | 35128 ft | 478 kts | 100° |
| 2026-05-06 09:26 | 40.27886 | 32.35858 | 35126 ft | 478 kts | 101° |
| 2026-05-06 09:27 | 40.26203 | 32.44276 | 35127 ft | 477 kts | 102° |
| 2026-05-06 09:27 | 40.24520 | 32.52613 | 35126 ft | 477 kts | 101° |
| 2026-05-06 09:28 | 40.22837 | 32.61001 | 35125 ft | 476 kts | 102° |
| 2026-05-06 09:28 | 40.21144 | 32.69385 | 35128 ft | 476 kts | 102° |
| 2026-05-06 09:29 | 40.19453 | 32.77750 | 35127 ft | 475 kts | 102° |
| 2026-05-06 09:29 | 40.17762 | 32.86109 | 35121 ft | 476 kts | 102° |
| 2026-05-06 09:30 | 40.16250 | 32.94500 | 35124 ft | 471 kts | 94° |
| 2026-05-06 09:30 | 40.16499 | 33.02944 | 35119 ft | 462 kts | 74° |
| 2026-05-06 09:31 | 40.18764 | 33.10691 | 35110 ft | 454 kts | 57° |
| 2026-05-06 09:31 | 40.21897 | 33.17867 | 35100 ft | 455 kts | 57° |
| 2026-05-06 09:32 | 40.25010 | 33.25080 | 35098 ft | 455 kts | 58° |
| 2026-05-06 09:32 | 40.28119 | 33.32332 | 35099 ft | 458 kts | 58° |
| 2026-05-06 09:33 | 40.31245 | 33.39612 | 35103 ft | 460 kts | 57° |
| 2026-05-06 09:33 | 40.34380 | 33.46915 | 35106 ft | 460 kts | 58° |
| 2026-05-06 09:34 | 40.37518 | 33.54231 | 35110 ft | 461 kts | 58° |
| 2026-05-06 09:34 | 40.40657 | 33.61579 | 35116 ft | 462 kts | 58° |
| 2026-05-06 09:35 | 40.43773 | 33.68949 | 35113 ft | 463 kts | 61° |
| 2026-05-06 09:35 | 40.46026 | 33.76893 | 35113 ft | 465 kts | 69° |
| 2026-05-06 09:36 | 40.47432 | 33.82540 | 35111 ft | 465 kts | 69° |
| 2026-05-06 09:36 | 40.49332 | 33.90212 | 35106 ft | 465 kts | 69° |
| 2026-05-06 09:37 | 40.51419 | 33.98249 | 35102 ft | 464 kts | 66° |
| 2026-05-06 09:37 | 40.53858 | 34.06117 | 35100 ft | 466 kts | 65° |
| 2026-05-06 09:38 | 40.56404 | 34.13949 | 35109 ft | 466 kts | 65° |
| 2026-05-06 09:38 | 40.58870 | 34.21807 | 35106 ft | 464 kts | 66° |
| 2026-05-06 09:39 | 40.61273 | 34.29696 | 35096 ft | 464 kts | 66° |
| 2026-05-06 09:39 | 40.63662 | 34.37594 | 35098 ft | 464 kts | 66° |
| 2026-05-06 09:40 | 40.66050 | 34.45479 | 35099 ft | 464 kts | 66° |
| 2026-05-06 09:40 | 40.69645 | 34.57309 | 35100 ft | 464 kts | 66° |
| 2026-05-06 09:41 | 40.72038 | 34.65208 | 35106 ft | 464 kts | 67° |
| 2026-05-06 09:41 | 40.74391 | 34.73054 | 35108 ft | 463 kts | 67° |
| 2026-05-06 09:42 | 40.76741 | 34.80969 | 35110 ft | 464 kts | 68° |
| 2026-05-06 09:42 | 40.79070 | 34.88915 | 35109 ft | 464 kts | 68° |
| 2026-05-06 09:43 | 40.81395 | 34.96834 | 35098 ft | 463 kts | 68° |
| 2026-05-06 09:43 | 40.83719 | 35.04761 | 35087 ft | 463 kts | 68° |
| 2026-05-06 09:44 | 40.86029 | 35.12698 | 35085 ft | 463 kts | 68° |
| 2026-05-06 09:44 | 40.88337 | 35.20643 | 35083 ft | 464 kts | 68° |
| 2026-05-06 09:45 | 40.90645 | 35.28601 | 35085 ft | 464 kts | 68° |
| 2026-05-06 09:45 | 40.92555 | 35.35220 | 35083 ft | 463 kts | 68° |
| 2026-05-06 09:46 | 40.94841 | 35.43180 | 35075 ft | 463 kts | 69° |
| 2026-05-06 09:46 | 40.97127 | 35.51151 | 35080 ft | 463 kts | 69° |
| 2026-05-06 09:47 | 40.99417 | 35.59125 | 35079 ft | 464 kts | 69° |
| 2026-05-06 09:47 | 41.01706 | 35.67107 | 35079 ft | 463 kts | 69° |
| 2026-05-06 09:48 | 41.03999 | 35.75068 | 35082 ft | 462 kts | 68° |
| 2026-05-06 09:48 | 41.06346 | 35.82996 | 35076 ft | 462 kts | 68° |
| 2026-05-06 09:49 | 41.08686 | 35.90916 | 35086 ft | 462 kts | 68° |
| 2026-05-06 09:49 | 41.10994 | 35.98881 | 35098 ft | 463 kts | 69° |
| 2026-05-06 09:50 | 41.13231 | 36.06882 | 35101 ft | 462 kts | 70° |
| 2026-05-06 09:50 | 41.15450 | 36.14884 | 35105 ft | 462 kts | 70° |
| 2026-05-06 09:51 | 41.17684 | 36.22892 | 35111 ft | 463 kts | 70° |
| 2026-05-06 09:51 | 41.19904 | 36.30873 | 35132 ft | 464 kts | 70° |
| 2026-05-06 09:52 | 41.22137 | 36.38892 | 35137 ft | 463 kts | 70° |
| 2026-05-06 09:52 | 41.24366 | 36.46922 | 35142 ft | 463 kts | 70° |
| 2026-05-06 09:53 | 41.26054 | 36.55132 | 35140 ft | 461 kts | 84° |
| 2026-05-06 09:53 | 41.25904 | 36.63605 | 35130 ft | 460 kts | 96° |
| 2026-05-06 09:54 | 41.25272 | 36.72071 | 35126 ft | 460 kts | 96° |
| 2026-05-06 09:54 | 41.24662 | 36.80532 | 35127 ft | 460 kts | 96° |
| 2026-05-06 09:55 | 41.24039 | 36.89005 | 35129 ft | 461 kts | 96° |
| 2026-05-06 09:55 | 41.23390 | 36.97496 | 35127 ft | 462 kts | 97° |
| 2026-05-06 09:56 | 41.22730 | 37.05984 | 35125 ft | 462 kts | 97° |
| 2026-05-06 09:56 | 41.22069 | 37.14468 | 35123 ft | 462 kts | 97° |
| 2026-05-06 09:57 | 41.21408 | 37.22955 | 35124 ft | 462 kts | 96° |
| 2026-05-06 09:57 | 41.20773 | 37.31450 | 35131 ft | 462 kts | 96° |
| 2026-05-06 09:58 | 41.20155 | 37.39953 | 35134 ft | 463 kts | 96° |
| 2026-05-06 09:58 | 41.19533 | 37.48457 | 35136 ft | 463 kts | 97° |
| 2026-05-06 09:59 | 41.18900 | 37.56963 | 35140 ft | 463 kts | 96° |
| 2026-05-06 09:59 | 41.18380 | 37.65482 | 35140 ft | 463 kts | 96° |
| 2026-05-06 10:00 | 41.17736 | 37.73990 | 35144 ft | 464 kts | 97° |
| 2026-05-06 10:00 | 41.16973 | 37.82497 | 35156 ft | 465 kts | 98° |
| 2026-05-06 10:01 | 41.16214 | 37.91007 | 35168 ft | 464 kts | 97° |
| 2026-05-06 10:01 | 41.15527 | 37.99512 | 35170 ft | 463 kts | 97° |
| 2026-05-06 10:02 | 41.14871 | 38.08030 | 34832 ft | 465 kts | 97° |
| 2026-05-06 10:02 | 41.14534 | 38.12295 | 34584 ft | 465 kts | 97° |
| 2026-05-06 10:02 | 41.14193 | 38.16557 | 34335 ft | 465 kts | 97° |
| 2026-05-06 10:03 | 41.13844 | 38.20819 | 34084 ft | 465 kts | 97° |
| 2026-05-06 10:03 | 41.13491 | 38.25077 | 33837 ft | 464 kts | 98° |
| 2026-05-06 10:03 | 41.13133 | 38.29334 | 33588 ft | 464 kts | 98° |
| 2026-05-06 10:03 | 41.12777 | 38.33586 | 33340 ft | 464 kts | 98° |
| 2026-05-06 10:04 | 41.12425 | 38.37849 | 33089 ft | 465 kts | 98° |
| 2026-05-06 10:04 | 41.12081 | 38.42046 | 32844 ft | 464 kts | 98° |
| 2026-05-06 10:04 | 41.11730 | 38.46307 | 32011 ft | 468 kts | 98° |
| 2026-05-06 10:04 | 41.11368 | 38.50627 | 31023 ft | 474 kts | 98° |
| 2026-05-06 10:05 | 41.11000 | 38.54982 | 29975 ft | 478 kts | 98° |
| 2026-05-06 10:05 | 41.10632 | 38.59343 | 29323 ft | 473 kts | 98° |
| 2026-05-06 10:05 | 41.10267 | 38.63663 | 28573 ft | 469 kts | 98° |
| 2026-05-06 10:05 | 41.09904 | 38.67933 | 27904 ft | 463 kts | 98° |
| 2026-05-06 10:06 | 41.09542 | 38.72152 | 27221 ft | 458 kts | 98° |
| 2026-05-06 10:06 | 41.09171 | 38.76329 | 26548 ft | 452 kts | 98° |
| 2026-05-06 10:06 | 41.08793 | 38.80434 | 25891 ft | 446 kts | 98° |
| 2026-05-06 10:06 | 41.08415 | 38.84493 | 25235 ft | 441 kts | 98° |
| 2026-05-06 10:07 | 41.08040 | 38.88502 | 24584 ft | 435 kts | 98° |
| 2026-05-06 10:07 | 41.07678 | 38.92447 | 23951 ft | 429 kts | 97° |
| 2026-05-06 10:07 | 41.07324 | 38.96347 | 23338 ft | 423 kts | 97° |
| 2026-05-06 10:07 | 41.06974 | 39.00195 | 22722 ft | 418 kts | 97° |
| 2026-05-06 10:08 | 41.06627 | 39.03993 | 22149 ft | 412 kts | 98° |
| 2026-05-06 10:08 | 41.06279 | 39.07736 | 21583 ft | 406 kts | 98° |
| 2026-05-06 10:08 | 41.05935 | 39.11428 | 21039 ft | 401 kts | 98° |
| 2026-05-06 10:08 | 41.05723 | 39.15085 | 20509 ft | 396 kts | 91° |
| 2026-05-06 10:09 | 41.05736 | 39.18707 | 19993 ft | 391 kts | 90° |
| 2026-05-06 10:09 | 41.05747 | 39.22287 | 19471 ft | 387 kts | 91° |
| 2026-05-06 10:09 | 41.05752 | 39.25827 | 18961 ft | 382 kts | 90° |
| 2026-05-06 10:09 | 41.05756 | 39.29323 | 18436 ft | 378 kts | 90° |
| 2026-05-06 10:10 | 41.05759 | 39.32773 | 17913 ft | 372 kts | 91° |
| 2026-05-06 10:10 | 41.05765 | 39.36190 | 17369 ft | 369 kts | 90° |
| 2026-05-06 10:10 | 41.05770 | 39.39533 | 16842 ft | 366 kts | 90° |
| 2026-05-06 10:10 | 41.05771 | 39.42900 | 16285 ft | 364 kts | 90° |
| 2026-05-06 10:11 | 41.05767 | 39.46245 | 15733 ft | 362 kts | 91° |
| 2026-05-06 10:11 | 41.05764 | 39.49578 | 15173 ft | 361 kts | 91° |
| 2026-05-06 10:11 | 41.05759 | 39.52891 | 14612 ft | 359 kts | 90° |
| 2026-05-06 10:11 | 41.05752 | 39.56186 | 14053 ft | 357 kts | 90° |
| 2026-05-06 10:12 | 41.05747 | 39.59458 | 13492 ft | 354 kts | 90° |
| 2026-05-06 10:12 | 41.05742 | 39.62703 | 12934 ft | 351 kts | 90° |
| 2026-05-06 10:12 | 41.05735 | 39.65927 | 12375 ft | 349 kts | 90° |
| 2026-05-06 10:12 | 41.05726 | 39.69135 | 11699 ft | 350 kts | 91° |
| 2026-05-06 10:13 | 41.05716 | 39.72355 | 11103 ft | 349 kts | 90° |
| 2026-05-06 10:13 | 41.05708 | 39.75556 | 10634 ft | 344 kts | 91° |
| 2026-05-06 10:13 | 41.05705 | 39.78661 | 10498 ft | 330 kts | 91° |
| 2026-05-06 10:13 | 41.05698 | 39.81644 | 10372 ft | 318 kts | 91° |
| 2026-05-06 10:14 | 41.05686 | 39.84517 | 10247 ft | 306 kts | 91° |
| 2026-05-06 10:14 | 41.05672 | 39.87294 | 10086 ft | 298 kts | 91° |
| 2026-05-06 10:14 | 41.05659 | 39.90011 | 9898 ft | 292 kts | 91° |
| 2026-05-06 10:14 | 41.05646 | 39.92696 | 9730 ft | 292 kts | 91° |
| 2026-05-06 10:15 | 41.05633 | 39.95381 | 9386 ft | 291 kts | 91° |
| 2026-05-06 10:15 | 41.05620 | 39.98066 | 8988 ft | 292 kts | 91° |
| 2026-05-06 10:15 | 41.05606 | 40.00759 | 8593 ft | 292 kts | 91° |
| 2026-05-06 10:15 | 41.05487 | 40.03409 | 8202 ft | 286 kts | 101° |
| 2026-05-06 10:16 | 41.04930 | 40.05932 | 7781 ft | 287 kts | 112° |
| 2026-05-06 10:16 | 41.04215 | 40.08403 | 7364 ft | 284 kts | 112° |
| 2026-05-06 10:16 | 41.03395 | 40.10718 | 6958 ft | 272 kts | 127° |
| 2026-05-06 10:16 | 41.02033 | 40.12341 | 6575 ft | 260 kts | 153° |
| 2026-05-06 10:17 | 41.00330 | 40.13000 | 6190 ft | 257 kts | 178° |
| 2026-05-06 10:17 | 40.98579 | 40.12716 | 5800 ft | 251 kts | 193° |
| 2026-05-06 10:17 | 40.96897 | 40.12225 | 5413 ft | 245 kts | 193° |
| 2026-05-06 10:17 | 40.95238 | 40.11699 | 5059 ft | 246 kts | 200° |
| 2026-05-06 10:18 | 40.93755 | 40.10669 | 4691 ft | 237 kts | 219° |
| 2026-05-06 10:18 | 40.92644 | 40.09137 | 4326 ft | 228 kts | 237° |
| 2026-05-06 10:18 | 40.91797 | 40.07381 | 3943 ft | 232 kts | 237° |
| 2026-05-06 10:18 | 40.91134 | 40.05448 | 3696 ft | 229 kts | 261° |
| 2026-05-06 10:19 | 40.91314 | 40.03454 | 3702 ft | 214 kts | 294° |
| 2026-05-06 10:19 | 40.92026 | 40.01790 | 3696 ft | 204 kts | 302° |
| 2026-05-06 10:19 | 40.92800 | 40.00223 | 3719 ft | 203 kts | 300° |
| 2026-05-06 10:19 | 40.93415 | 39.98630 | 3710 ft | 183 kts | 293° |
| 2026-05-06 10:20 | 40.93877 | 39.97192 | 3621 ft | 161 kts | 292° |
| 2026-05-06 10:20 | 40.94275 | 39.95894 | 3461 ft | 145 kts | 290° |
| 2026-05-06 10:20 | 40.94644 | 39.94699 | 3111 ft | 139 kts | 291° |
| 2026-05-06 10:20 | 40.94973 | 39.93489 | 2631 ft | 140 kts | 284° |
| 2026-05-06 10:21 | 40.95281 | 39.92269 | 2252 ft | 137 kts | 293° |
| 2026-05-06 10:21 | 40.95639 | 39.91129 | 1949 ft | 131 kts | 290° |
| 2026-05-06 10:21 | 40.95962 | 39.90017 | 1613 ft | 129 kts | 294° |
| 2026-05-06 10:21 | 40.96342 | 39.88927 | 1335 ft | 131 kts | 298° |
| 2026-05-06 10:22 | 40.96690 | 39.87810 | 1174 ft | 132 kts | 293° |
| 2026-05-06 10:22 | 40.97066 | 39.86701 | 1047 ft | 132 kts | 296° |
| 2026-05-06 10:22 | 40.97422 | 39.85577 | 878 ft | 132 kts | 295° |
| 2026-05-06 10:22 | 40.97771 | 39.84455 | 677 ft | 132 kts | 294° |
| 2026-05-06 10:23 | 40.98137 | 39.83343 | 528 ft | 132 kts | 295° |
| 2026-05-06 10:23 | 40.98491 | 39.82228 | 399 ft | 132 kts | 294° |
| 2026-05-06 10:23 | 40.98841 | 39.81110 | 242 ft | 132 kts | 294° |
| 2026-05-06 10:23 | 40.99187 | 39.79998 | 108 ft | 124 kts | 292° |
| 2026-05-06 10:24 | 40.99460 | 39.79128 | 102 ft | 78 kts | 292° |
| 2026-05-06 10:24 | 40.99608 | 39.78650 | 105 ft | 43 kts | 292° |
| 2026-05-06 10:24 | 40.99691 | 39.78382 | 109 ft | 24 kts | 292° |
| 2026-05-06 10:24 | 40.99754 | 39.78178 | 109 ft | 25 kts | 292° |
| 2026-05-06 10:25 | 40.99825 | 39.77956 | 106 ft | 27 kts | 293° |
| 2026-05-06 10:25 | 40.99892 | 39.77741 | 106 ft | 24 kts | 292° |
| 2026-05-06 10:25 | 40.99933 | 39.77599 | 110 ft | 10 kts | 285° |
| 2026-05-06 10:25 | 40.99915 | 39.77516 | 111 ft | 9 kts | 225° |
| 2026-05-06 10:26 | 40.99860 | 39.77493 | 110 ft | 8 kts | 180° |
| 2026-05-06 10:26 | 40.99810 | 39.77537 | 108 ft | 8 kts | 122° |
| 2026-05-06 10:26 | 40.99782 | 39.77620 | 108 ft | 11 kts | 113° |
| 2026-05-06 10:26 | 40.99750 | 39.77720 | 110 ft | 13 kts | 112° |
| 2026-05-06 10:27 | 40.99722 | 39.77808 | 113 ft | 9 kts | 112° |
| 2026-05-06 10:27 | 40.99699 | 39.77881 | 112 ft | 9 kts | 112° |
| 2026-05-06 10:27 | 40.99672 | 39.77971 | 112 ft | 12 kts | 112° |
| 2026-05-06 10:27 | 40.99646 | 39.78056 | 112 ft | 7 kts | 112° |
| 2026-05-06 10:28 | 40.99619 | 39.78101 | 112 ft | 7 kts | 158° |
| 2026-05-06 10:28 | 40.99580 | 39.78091 | 111 ft | 4 kts | 201° |
| 2026-05-06 10:28 | 40.99565 | 39.78082 | 115 ft | 0 kts | 202° |